Terminal Aerodrome Forecast
Issued by NWS

Home | Current Version | Previous Version | Text Only | Print | Product List | Glossary On
Versions: 1 2 3 4 5 6 7 8 9 10 11 12 13 14 15 16
000
FTAK31 PAJN 132336
TAFAJN
TAF
PAJN 132336Z 1400/1424 12020G30KT 6SM RA BR FEW010 BKN040 OVC060
      WS020/14035KT
     FM140200 12020G30KT 4SM RA BR SCT010 BKN035 OVC060
      WS020/14035KT
     FM140800 11015G25KT 4SM RA BR SCT015 BKN040 OVC060
      WS020/15035KT
     FM142200 11010G18KT 6SM -SHRA BR OVC030=

USA.gov is the U.S. government's official web portal to all federal, state and local government web resources and services.